sensor_id;sensor_type;location;lat;lon;timestamp;temperature;humidity
69418;DHT22;56610;48.872;2.400;2022-12-07T00:01:09;11.80;99.90
69418;DHT22;56610;48.872;2.400;2022-12-07T00:03:35;11.50;99.90
69418;DHT22;56610;48.872;2.400;2022-12-07T00:06:02;11.50;99.90
69418;DHT22;56610;48.872;2.400;2022-12-07T00:08:29;11.60;99.90
69418;DHT22;56610;48.872;2.400;2022-12-07T00:10:55;11.70;99.90
69418;DHT22;56610;48.872;2.400;2022-12-07T00:13:20;11.90;99.90
69418;DHT22;56610;48.872;2.400;2022-12-07T00:15:46;11.90;99.90
69418;DHT22;56610;48.872;2.400;2022-12-07T00:18:12;11.90;99.90
69418;DHT22;56610;48.872;2.400;2022-12-07T00:20:37;11.90;99.90
69418;DHT22;56610;48.872;2.400;2022-12-07T00:23:03;11.70;99.90
69418;DHT22;56610;48.872;2.400;2022-12-07T00:25:30;11.60;99.90
69418;DHT22;56610;48.872;2.400;2022-12-07T00:27:55;10.90;99.90
69418;DHT22;56610;48.872;2.400;2022-12-07T00:30:22;10.30;99.90
69418;DHT22;56610;48.872;2.400;2022-12-07T00:32:49;9.70;99.90
69418;DHT22;56610;48.872;2.400;2022-12-07T00:35:14;9.20;99.90
69418;DHT22;56610;48.872;2.400;2022-12-07T00:37:40;8.90;99.90
69418;DHT22;56610;48.872;2.400;2022-12-07T00:40:06;8.70;99.90
69418;DHT22;56610;48.872;2.400;2022-12-07T00:42:32;8.30;99.90
69418;DHT22;56610;48.872;2.400;2022-12-07T00:44:58;8.30;99.90
69418;DHT22;56610;48.872;2.400;2022-12-07T00:47:24;8.10;99.90
69418;DHT22;56610;48.872;2.400;2022-12-07T00:49:49;8.00;99.90
69418;DHT22;56610;48.872;2.400;2022-12-07T00:52:15;7.90;99.90
69418;DHT22;56610;48.872;2.400;2022-12-07T00:54:40;7.80;99.90
69418;DHT22;56610;48.872;2.400;2022-12-07T00:57:06;7.60;99.90
69418;DHT22;56610;48.872;2.400;2022-12-07T00:59:31;7.60;99.90
69418;DHT22;56610;48.872;2.400;2022-12-07T01:01:57;7.40;99.90
69418;DHT22;56610;48.872;2.400;2022-12-07T01:04:23;7.50;99.90
69418;DHT22;56610;48.872;2.400;2022-12-07T01:06:48;7.50;99.90
69418;DHT22;56610;48.872;2.400;2022-12-07T01:09:14;7.50;99.90
69418;DHT22;56610;48.872;2.400;2022-12-07T01:11:39;7.50;99.90
69418;DHT22;56610;48.872;2.400;2022-12-07T01:14:05;7.40;99.90
69418;DHT22;56610;48.872;2.400;2022-12-07T01:16:32;7.40;99.90
69418;DHT22;56610;48.872;2.400;2022-12-07T01:18:58;7.40;99.90
69418;DHT22;56610;48.872;2.400;2022-12-07T01:21:27;7.40;99.90
69418;DHT22;56610;48.872;2.400;2022-12-07T01:23:53;7.30;99.90
69418;DHT22;56610;48.872;2.400;2022-12-07T01:26:21;7.40;99.90
69418;DHT22;56610;48.872;2.400;2022-12-07T01:28:47;7.40;99.90
69418;DHT22;56610;48.872;2.400;2022-12-07T01:31:15;7.40;99.90
69418;DHT22;56610;48.872;2.400;2022-12-07T01:33:41;7.40;99.90
69418;DHT22;56610;48.872;2.400;2022-12-07T01:36:16;7.30;99.90
69418;DHT22;56610;48.872;2.400;2022-12-07T01:38:43;7.30;99.90
69418;DHT22;56610;48.872;2.400;2022-12-07T01:41:09;7.40;99.90
69418;DHT22;56610;48.872;2.400;2022-12-07T01:43:36;7.30;99.90
69418;DHT22;56610;48.872;2.400;2022-12-07T01:46:03;7.30;99.90
69418;DHT22;56610;48.872;2.400;2022-12-07T01:48:37;7.20;99.90
69418;DHT22;56610;48.872;2.400;2022-12-07T01:51:09;7.20;99.90
69418;DHT22;56610;48.872;2.400;2022-12-07T01:53:37;7.20;99.90
69418;DHT22;56610;48.872;2.400;2022-12-07T01:56:05;7.10;99.90
69418;DHT22;56610;48.872;2.400;2022-12-07T01:58:31;7.10;99.90
69418;DHT22;56610;48.872;2.400;2022-12-07T02:00:57;7.10;99.90
69418;DHT22;56610;48.872;2.400;2022-12-07T02:03:34;7.10;99.90
69418;DHT22;56610;48.872;2.400;2022-12-07T02:06:06;7.10;99.90
69418;DHT22;56610;48.872;2.400;2022-12-07T02:08:32;7.10;99.90
69418;DHT22;56610;48.872;2.400;2022-12-07T02:10:59;7.00;99.90
69418;DHT22;56610;48.872;2.400;2022-12-07T02:13:27;6.80;99.90
69418;DHT22;56610;48.872;2.400;2022-12-07T02:26:48;7.00;99.90
69418;DHT22;56610;48.872;2.400;2022-12-07T02:29:32;6.90;99.90
69418;DHT22;56610;48.872;2.400;2022-12-07T02:32:16;6.90;99.90
69418;DHT22;56610;48.872;2.400;2022-12-07T02:34:52;6.80;99.90
69418;DHT22;56610;48.872;2.400;2022-12-07T02:39:59;6.70;99.90
69418;DHT22;56610;48.872;2.400;2022-12-07T02:42:40;6.70;99.90
69418;DHT22;56610;48.872;2.400;2022-12-07T02:45:08;6.70;99.90
69418;DHT22;56610;48.872;2.400;2022-12-07T02:47:35;6.80;99.90
69418;DHT22;56610;48.872;2.400;2022-12-07T02:50:04;6.70;99.90
69418;DHT22;56610;48.872;2.400;2022-12-07T02:52:30;6.70;99.90
69418;DHT22;56610;48.872;2.400;2022-12-07T02:54:56;6.70;99.90
69418;DHT22;56610;48.872;2.400;2022-12-07T03:00:25;6.70;99.90
69418;DHT22;56610;48.872;2.400;2022-12-07T03:02:58;6.60;99.90
69418;DHT22;56610;48.872;2.400;2022-12-07T03:05:47;6.60;99.90
69418;DHT22;56610;48.872;2.400;2022-12-07T03:08:24;6.60;99.90
69418;DHT22;56610;48.872;2.400;2022-12-07T03:10:58;6.70;99.90
69418;DHT22;56610;48.872;2.400;2022-12-07T03:16:20;7.10;99.90
69418;DHT22;56610;48.872;2.400;2022-12-07T03:19:03;7.40;99.90
69418;DHT22;56610;48.872;2.400;2022-12-07T03:21:42;7.80;99.90
69418;DHT22;56610;48.872;2.400;2022-12-07T03:24:17;8.00;99.90
69418;DHT22;56610;48.872;2.400;2022-12-07T03:26:51;8.10;99.90
69418;DHT22;56610;48.872;2.400;2022-12-07T03:29:25;8.20;99.90
69418;DHT22;56610;48.872;2.400;2022-12-07T03:32:06;8.50;99.90
69418;DHT22;56610;48.872;2.400;2022-12-07T03:40:40;9.10;99.90
69418;DHT22;56610;48.872;2.400;2022-12-07T03:43:07;8.70;99.90
69418;DHT22;56610;48.872;2.400;2022-12-07T03:45:42;8.60;99.90
69418;DHT22;56610;48.872;2.400;2022-12-07T03:48:25;8.60;99.90
69418;DHT22;56610;48.872;2.400;2022-12-07T03:53:34;8.10;99.90
69418;DHT22;56610;48.872;2.400;2022-12-07T03:56:02;8.20;99.90
69418;DHT22;56610;48.872;2.400;2022-12-07T03:58:28;8.20;99.90
69418;DHT22;56610;48.872;2.400;2022-12-07T04:00:55;8.60;99.90
69418;DHT22;56610;48.872;2.400;2022-12-07T04:03:21;8.90;99.90
69418;DHT22;56610;48.872;2.400;2022-12-07T04:05:47;8.70;99.90
69418;DHT22;56610;48.872;2.400;2022-12-07T04:08:12;8.50;99.90
69418;DHT22;56610;48.872;2.400;2022-12-07T04:10:38;8.20;99.90
69418;DHT22;56610;48.872;2.400;2022-12-07T04:13:04;8.00;99.90
69418;DHT22;56610;48.872;2.400;2022-12-07T04:15:29;7.70;99.90
69418;DHT22;56610;48.872;2.400;2022-12-07T04:17:55;7.50;99.90
69418;DHT22;56610;48.872;2.400;2022-12-07T04:20:21;7.30;99.90
69418;DHT22;56610;48.872;2.400;2022-12-07T04:22:46;7.10;99.90
69418;DHT22;56610;48.872;2.400;2022-12-07T04:25:12;6.90;99.90
69418;DHT22;56610;48.872;2.400;2022-12-07T04:27:38;6.70;99.90
69418;DHT22;56610;48.872;2.400;2022-12-07T04:30:05;6.60;99.90
69418;DHT22;56610;48.872;2.400;2022-12-07T04:32:31;6.60;99.90
69418;DHT22;56610;48.872;2.400;2022-12-07T04:34:56;6.50;99.90
69418;DHT22;56610;48.872;2.400;2022-12-07T04:37:23;6.50;99.90
69418;DHT22;56610;48.872;2.400;2022-12-07T04:39:48;6.50;99.90
69418;DHT22;56610;48.872;2.400;2022-12-07T04:42:14;6.40;99.90
69418;DHT22;56610;48.872;2.400;2022-12-07T04:44:40;6.30;99.90
69418;DHT22;56610;48.872;2.400;2022-12-07T04:47:05;6.20;99.90
69418;DHT22;56610;48.872;2.400;2022-12-07T04:49:31;6.10;99.90
69418;DHT22;56610;48.872;2.400;2022-12-07T04:51:56;6.10;99.90
69418;DHT22;56610;48.872;2.400;2022-12-07T04:54:22;6.00;99.90
69418;DHT22;56610;48.872;2.400;2022-12-07T04:56:48;6.00;99.90
69418;DHT22;56610;48.872;2.400;2022-12-07T04:59:15;5.90;99.90
69418;DHT22;56610;48.872;2.400;2022-12-07T05:01:41;5.90;99.90
69418;DHT22;56610;48.872;2.400;2022-12-07T05:04:07;5.80;99.90
69418;DHT22;56610;48.872;2.400;2022-12-07T05:06:33;5.80;99.90
69418;DHT22;56610;48.872;2.400;2022-12-07T05:08:59;5.70;99.90
69418;DHT22;56610;48.872;2.400;2022-12-07T05:11:25;5.70;99.90
69418;DHT22;56610;48.872;2.400;2022-12-07T05:14:17;5.70;99.90
69418;DHT22;56610;48.872;2.400;2022-12-07T05:16:45;5.80;99.90
69418;DHT22;56610;48.872;2.400;2022-12-07T05:19:11;5.90;99.90
69418;DHT22;56610;48.872;2.400;2022-12-07T05:21:38;6.00;99.90
69418;DHT22;56610;48.872;2.400;2022-12-07T05:24:04;6.50;99.90
69418;DHT22;56610;48.872;2.400;2022-12-07T05:26:31;7.10;99.90
69418;DHT22;56610;48.872;2.400;2022-12-07T05:28:58;7.60;99.90
69418;DHT22;56610;48.872;2.400;2022-12-07T05:31:24;7.60;99.90
69418;DHT22;56610;48.872;2.400;2022-12-07T05:33:51;7.50;99.90
69418;DHT22;56610;48.872;2.400;2022-12-07T05:36:16;7.30;99.90
69418;DHT22;56610;48.872;2.400;2022-12-07T05:38:42;7.10;99.90
69418;DHT22;56610;48.872;2.400;2022-12-07T05:41:08;7.00;99.90
69418;DHT22;56610;48.872;2.400;2022-12-07T05:43:56;6.90;99.90
69418;DHT22;56610;48.872;2.400;2022-12-07T05:46:22;7.50;99.90
69418;DHT22;56610;48.872;2.400;2022-12-07T05:48:48;7.50;99.90
69418;DHT22;56610;48.872;2.400;2022-12-07T05:51:13;7.30;99.90
69418;DHT22;56610;48.872;2.400;2022-12-07T05:53:39;7.00;99.90
69418;DHT22;56610;48.872;2.400;2022-12-07T05:56:06;6.90;99.90
69418;DHT22;56610;48.872;2.400;2022-12-07T05:58:32;6.70;99.90
69418;DHT22;56610;48.872;2.400;2022-12-07T06:01:16;6.60;99.90
69418;DHT22;56610;48.872;2.400;2022-12-07T06:03:41;6.50;99.90
69418;DHT22;56610;48.872;2.400;2022-12-07T06:06:07;6.50;99.90
69418;DHT22;56610;48.872;2.400;2022-12-07T06:08:32;6.40;99.90
69418;DHT22;56610;48.872;2.400;2022-12-07T06:10:58;6.40;99.90
69418;DHT22;56610;48.872;2.400;2022-12-07T06:13:42;6.40;99.90
69418;DHT22;56610;48.872;2.400;2022-12-07T06:16:07;6.40;99.90
69418;DHT22;56610;48.872;2.400;2022-12-07T06:18:33;6.50;99.90
69418;DHT22;56610;48.872;2.400;2022-12-07T06:20:59;6.40;99.90
69418;DHT22;56610;48.872;2.400;2022-12-07T06:23:24;6.40;99.90
69418;DHT22;56610;48.872;2.400;2022-12-07T06:25:50;6.50;99.90
69418;DHT22;56610;48.872;2.400;2022-12-07T06:28:15;6.40;99.90
69418;DHT22;56610;48.872;2.400;2022-12-07T06:31:02;6.60;99.90
69418;DHT22;56610;48.872;2.400;2022-12-07T06:33:28;6.60;99.90
69418;DHT22;56610;48.872;2.400;2022-12-07T06:35:54;6.70;99.90
69418;DHT22;56610;48.872;2.400;2022-12-07T06:38:20;6.70;99.90
69418;DHT22;56610;48.872;2.400;2022-12-07T06:40:46;6.90;99.90
69418;DHT22;56610;48.872;2.400;2022-12-07T06:43:11;6.90;99.90
69418;DHT22;56610;48.872;2.400;2022-12-07T06:45:37;6.90;99.90
69418;DHT22;56610;48.872;2.400;2022-12-07T06:48:03;7.00;99.90
69418;DHT22;56610;48.872;2.400;2022-12-07T06:50:28;7.10;99.90
69418;DHT22;56610;48.872;2.400;2022-12-07T06:52:54;7.30;99.90
69418;DHT22;56610;48.872;2.400;2022-12-07T06:55:20;7.60;99.90
69418;DHT22;56610;48.872;2.400;2022-12-07T06:57:45;7.60;99.90
69418;DHT22;56610;48.872;2.400;2022-12-07T07:00:12;7.60;99.90
69418;DHT22;56610;48.872;2.400;2022-12-07T07:02:37;7.60;99.90
69418;DHT22;56610;48.872;2.400;2022-12-07T07:05:03;7.80;99.90
69418;DHT22;56610;48.872;2.400;2022-12-07T07:07:29;7.90;99.90
69418;DHT22;56610;48.872;2.400;2022-12-07T07:09:54;8.00;99.90
69418;DHT22;56610;48.872;2.400;2022-12-07T07:12:21;8.40;99.90
69418;DHT22;56610;48.872;2.400;2022-12-07T07:14:47;8.40;99.90
69418;DHT22;56610;48.872;2.400;2022-12-07T07:17:13;8.30;99.90
69418;DHT22;56610;48.872;2.400;2022-12-07T07:19:38;8.30;99.90
69418;DHT22;56610;48.872;2.400;2022-12-07T07:22:04;8.30;99.90
69418;DHT22;56610;48.872;2.400;2022-12-07T07:24:31;8.30;99.90
69418;DHT22;56610;48.872;2.400;2022-12-07T07:26:56;8.40;99.90
69418;DHT22;56610;48.872;2.400;2022-12-07T07:29:22;8.60;99.90
69418;DHT22;56610;48.872;2.400;2022-12-07T07:31:48;8.70;99.90
69418;DHT22;56610;48.872;2.400;2022-12-07T07:34:13;8.60;99.90
69418;DHT22;56610;48.872;2.400;2022-12-07T07:36:39;8.60;99.90
69418;DHT22;56610;48.872;2.400;2022-12-07T07:39:07;8.60;99.90
69418;DHT22;56610;48.872;2.400;2022-12-07T07:41:33;8.60;99.90
69418;DHT22;56610;48.872;2.400;2022-12-07T07:44:01;8.50;99.90
69418;DHT22;56610;48.872;2.400;2022-12-07T07:46:27;8.40;99.90
69418;DHT22;56610;48.872;2.400;2022-12-07T07:48:53;8.30;99.90
69418;DHT22;56610;48.872;2.400;2022-12-07T07:51:19;8.40;99.90
69418;DHT22;56610;48.872;2.400;2022-12-07T07:53:44;8.30;99.90
69418;DHT22;56610;48.872;2.400;2022-12-07T07:56:10;8.20;99.90
69418;DHT22;56610;48.872;2.400;2022-12-07T07:58:35;8.40;99.90
69418;DHT22;56610;48.872;2.400;2022-12-07T08:01:07;8.30;99.90
69418;DHT22;56610;48.872;2.400;2022-12-07T08:03:33;8.50;99.90
69418;DHT22;56610;48.872;2.400;2022-12-07T08:05:59;8.60;99.90
69418;DHT22;56610;48.872;2.400;2022-12-07T08:08:25;8.80;99.90
69418;DHT22;56610;48.872;2.400;2022-12-07T08:10:50;8.70;99.90
69418;DHT22;56610;48.872;2.400;2022-12-07T08:13:16;8.50;99.90
69418;DHT22;56610;48.872;2.400;2022-12-07T08:15:44;8.50;99.90
69418;DHT22;56610;48.872;2.400;2022-12-07T08:18:11;8.30;99.90
69418;DHT22;56610;48.872;2.400;2022-12-07T08:20:38;8.20;99.90
69418;DHT22;56610;48.872;2.400;2022-12-07T08:23:04;8.10;99.90
69418;DHT22;56610;48.872;2.400;2022-12-07T08:25:31;8.10;99.90
69418;DHT22;56610;48.872;2.400;2022-12-07T08:27:57;7.90;99.90
69418;DHT22;56610;48.872;2.400;2022-12-07T08:30:23;7.80;99.90
69418;DHT22;56610;48.872;2.400;2022-12-07T08:32:49;7.80;99.90
69418;DHT22;56610;48.872;2.400;2022-12-07T08:35:15;7.60;99.90
69418;DHT22;56610;48.872;2.400;2022-12-07T08:37:41;7.60;99.90
69418;DHT22;56610;48.872;2.400;2022-12-07T08:40:08;7.60;99.90
69418;DHT22;56610;48.872;2.400;2022-12-07T08:42:35;7.60;99.90
69418;DHT22;56610;48.872;2.400;2022-12-07T08:45:10;7.60;99.90
69418;DHT22;56610;48.872;2.400;2022-12-07T08:47:43;7.60;99.90
69418;DHT22;56610;48.872;2.400;2022-12-07T08:50:10;7.60;99.90
69418;DHT22;56610;48.872;2.400;2022-12-07T08:52:37;7.60;99.90
69418;DHT22;56610;48.872;2.400;2022-12-07T08:55:03;7.70;99.90
69418;DHT22;56610;48.872;2.400;2022-12-07T08:57:30;7.70;99.90
69418;DHT22;56610;48.872;2.400;2022-12-07T08:59:57;7.70;99.90
69418;DHT22;56610;48.872;2.400;2022-12-07T09:02:24;7.60;99.90
69418;DHT22;56610;48.872;2.400;2022-12-07T09:04:49;7.50;99.90
69418;DHT22;56610;48.872;2.400;2022-12-07T09:07:15;7.50;99.90
69418;DHT22;56610;48.872;2.400;2022-12-07T09:09:41;7.60;99.90
69418;DHT22;56610;48.872;2.400;2022-12-07T09:12:07;7.60;99.90
69418;DHT22;56610;48.872;2.400;2022-12-07T09:14:33;7.60;99.90
69418;DHT22;56610;48.872;2.400;2022-12-07T09:17:09;7.50;99.90
69418;DHT22;56610;48.872;2.400;2022-12-07T09:19:35;7.50;99.90
69418;DHT22;56610;48.872;2.400;2022-12-07T09:22:02;7.50;99.90
69418;DHT22;56610;48.872;2.400;2022-12-07T09:24:28;7.40;99.90
69418;DHT22;56610;48.872;2.400;2022-12-07T09:26:53;7.50;99.90
69418;DHT22;56610;48.872;2.400;2022-12-07T09:29:19;7.60;99.90
69418;DHT22;56610;48.872;2.400;2022-12-07T09:31:45;7.70;99.90
69418;DHT22;56610;48.872;2.400;2022-12-07T09:34:11;7.80;99.90
69418;DHT22;56610;48.872;2.400;2022-12-07T09:36:37;7.80;99.90
69418;DHT22;56610;48.872;2.400;2022-12-07T09:39:03;7.80;99.90
69418;DHT22;56610;48.872;2.400;2022-12-07T09:41:41;7.70;99.90
69418;DHT22;56610;48.872;2.400;2022-12-07T09:44:12;7.70;99.90
69418;DHT22;56610;48.872;2.400;2022-12-07T09:46:40;7.70;99.90
69418;DHT22;56610;48.872;2.400;2022-12-07T09:49:20;7.70;99.90
69418;DHT22;56610;48.872;2.400;2022-12-07T09:51:47;7.70;99.90
69418;DHT22;56610;48.872;2.400;2022-12-07T09:54:15;7.70;99.90
69418;DHT22;56610;48.872;2.400;2022-12-07T09:56:44;7.90;99.90
69418;DHT22;56610;48.872;2.400;2022-12-07T09:59:16;8.10;99.90
69418;DHT22;56610;48.872;2.400;2022-12-07T10:01:43;8.20;99.90
69418;DHT22;56610;48.872;2.400;2022-12-07T10:04:16;8.20;99.90
69418;DHT22;56610;48.872;2.400;2022-12-07T10:06:43;8.10;99.90
69418;DHT22;56610;48.872;2.400;2022-12-07T10:09:10;8.20;99.90
69418;DHT22;56610;48.872;2.400;2022-12-07T10:14:27;8.20;99.90
69418;DHT22;56610;48.872;2.400;2022-12-07T10:16:54;8.30;99.90
69418;DHT22;56610;48.872;2.400;2022-12-07T10:19:45;8.30;99.90
69418;DHT22;56610;48.872;2.400;2022-12-07T10:22:14;8.50;99.90
69418;DHT22;56610;48.872;2.400;2022-12-07T10:24:41;8.60;99.90
69418;DHT22;56610;48.872;2.400;2022-12-07T10:27:30;8.70;99.90
69418;DHT22;56610;48.872;2.400;2022-12-07T10:29:57;8.70;99.90
69418;DHT22;56610;48.872;2.400;2022-12-07T10:32:31;8.80;99.90
69418;DHT22;56610;48.872;2.400;2022-12-07T10:35:29;8.90;99.90
69418;DHT22;56610;48.872;2.400;2022-12-07T10:37:58;9.20;99.90
69418;DHT22;56610;48.872;2.400;2022-12-07T10:40:29;9.30;99.90
69418;DHT22;56610;48.872;2.400;2022-12-07T10:45:30;9.80;99.90
69418;DHT22;56610;48.872;2.400;2022-12-07T11:01:33;10.10;99.90
69418;DHT22;56610;48.872;2.400;2022-12-07T11:04:18;10.10;99.90
69418;DHT22;56610;48.872;2.400;2022-12-07T11:12:20;10.30;99.90
69418;DHT22;56610;48.872;2.400;2022-12-07T11:23:16;11.00;99.90
69418;DHT22;56610;48.872;2.400;2022-12-07T11:26:02;11.70;99.90
69418;DHT22;56610;48.872;2.400;2022-12-07T11:36:57;13.00;99.90
69418;DHT22;56610;48.872;2.400;2022-12-07T11:39:26;13.60;99.90
69418;DHT22;56610;48.872;2.400;2022-12-07T11:42:10;13.70;99.90
69418;DHT22;56610;48.872;2.400;2022-12-07T11:45:10;14.10;99.90
69418;DHT22;56610;48.872;2.400;2022-12-07T11:47:45;14.20;99.90
69418;DHT22;56610;48.872;2.400;2022-12-07T11:50:51;14.20;99.90
69418;DHT22;56610;48.872;2.400;2022-12-07T11:53:22;14.00;99.90
69418;DHT22;56610;48.872;2.400;2022-12-07T11:56:26;13.90;99.90
69418;DHT22;56610;48.872;2.400;2022-12-07T11:59:17;13.90;99.90
69418;DHT22;56610;48.872;2.400;2022-12-07T12:01:58;13.90;99.90
69418;DHT22;56610;48.872;2.400;2022-12-07T12:04:49;14.00;99.90
69418;DHT22;56610;48.872;2.400;2022-12-07T12:07:21;14.10;99.90
69418;DHT22;56610;48.872;2.400;2022-12-07T12:09:58;14.20;99.90
69418;DHT22;56610;48.872;2.400;2022-12-07T12:26:21;14.30;99.90
69418;DHT22;56610;48.872;2.400;2022-12-07T12:28:52;14.40;99.90
69418;DHT22;56610;48.872;2.400;2022-12-07T12:33:59;14.10;99.90
69418;DHT22;56610;48.872;2.400;2022-12-07T12:36:26;13.70;99.90
69418;DHT22;56610;48.872;2.400;2022-12-07T12:46:57;12.40;99.90
69418;DHT22;56610;48.872;2.400;2022-12-07T12:51:52;11.70;99.90
69418;DHT22;56610;48.872;2.400;2022-12-07T12:59:58;12.20;99.90
69418;DHT22;56610;48.872;2.400;2022-12-07T13:18:16;12.40;99.90
69418;DHT22;56610;48.872;2.400;2022-12-07T13:26:20;12.90;99.90
69418;DHT22;56610;48.872;2.400;2022-12-07T13:31:49;12.30;99.90
69418;DHT22;56610;48.872;2.400;2022-12-07T13:34:34;12.10;99.90
69418;DHT22;56610;48.872;2.400;2022-12-07T13:37:39;11.90;99.90
69418;DHT22;56610;48.872;2.400;2022-12-07T13:40:30;11.90;99.90
69418;DHT22;56610;48.872;2.400;2022-12-07T13:43:04;12.00;99.90
69418;DHT22;56610;48.872;2.400;2022-12-07T13:45:32;11.80;99.90
69418;DHT22;56610;48.872;2.400;2022-12-07T13:51:28;11.80;99.90
69418;DHT22;56610;48.872;2.400;2022-12-07T13:54:08;11.80;99.90
69418;DHT22;56610;48.872;2.400;2022-12-07T13:56:35;12.10;99.90
69418;DHT22;56610;48.872;2.400;2022-12-07T13:59:01;12.30;99.90
69418;DHT22;56610;48.872;2.400;2022-12-07T14:01:27;12.30;99.90
69418;DHT22;56610;48.872;2.400;2022-12-07T14:03:53;12.30;99.90
69418;DHT22;56610;48.872;2.400;2022-12-07T14:06:26;12.60;99.90
69418;DHT22;56610;48.872;2.400;2022-12-07T14:09:09;12.70;99.90
69418;DHT22;56610;48.872;2.400;2022-12-07T14:11:41;12.80;99.90
69418;DHT22;56610;48.872;2.400;2022-12-07T14:14:14;12.90;99.90
69418;DHT22;56610;48.872;2.400;2022-12-07T14:16:40;13.00;99.90
69418;DHT22;56610;48.872;2.400;2022-12-07T14:22:27;12.70;99.90
69418;DHT22;56610;48.872;2.400;2022-12-07T14:25:23;12.40;99.90
69418;DHT22;56610;48.872;2.400;2022-12-07T14:27:57;12.20;99.90
69418;DHT22;56610;48.872;2.400;2022-12-07T14:30:28;12.20;99.90
69418;DHT22;56610;48.872;2.400;2022-12-07T14:33:00;12.20;99.90
69418;DHT22;56610;48.872;2.400;2022-12-07T14:35:26;12.40;99.90
69418;DHT22;56610;48.872;2.400;2022-12-07T14:37:52;12.60;99.90
69418;DHT22;56610;48.872;2.400;2022-12-07T14:40:19;12.70;99.90
69418;DHT22;56610;48.872;2.400;2022-12-07T14:42:47;12.80;99.90
69418;DHT22;56610;48.872;2.400;2022-12-07T14:45:16;12.70;99.90
69418;DHT22;56610;48.872;2.400;2022-12-07T14:47:42;12.70;99.90
69418;DHT22;56610;48.872;2.400;2022-12-07T14:50:12;12.80;99.90
69418;DHT22;56610;48.872;2.400;2022-12-07T14:52:39;13.00;99.90
69418;DHT22;56610;48.872;2.400;2022-12-07T14:55:13;13.10;99.90
69418;DHT22;56610;48.872;2.400;2022-12-07T14:57:39;13.00;99.90
69418;DHT22;56610;48.872;2.400;2022-12-07T15:00:05;13.10;99.90
69418;DHT22;56610;48.872;2.400;2022-12-07T15:02:31;13.20;99.90
69418;DHT22;56610;48.872;2.400;2022-12-07T15:04:57;13.20;99.90
69418;DHT22;56610;48.872;2.400;2022-12-07T15:07:22;13.10;99.90
69418;DHT22;56610;48.872;2.400;2022-12-07T15:09:49;12.90;99.90
69418;DHT22;56610;48.872;2.400;2022-12-07T15:12:14;12.70;99.90
69418;DHT22;56610;48.872;2.400;2022-12-07T15:14:40;12.60;99.90
69418;DHT22;56610;48.872;2.400;2022-12-07T15:17:07;12.60;99.90
69418;DHT22;56610;48.872;2.400;2022-12-07T15:19:34;12.50;99.90
69418;DHT22;56610;48.872;2.400;2022-12-07T15:22:00;12.30;99.90
69418;DHT22;56610;48.872;2.400;2022-12-07T15:24:26;12.30;99.90
69418;DHT22;56610;48.872;2.400;2022-12-07T15:26:52;12.50;99.90
69418;DHT22;56610;48.872;2.400;2022-12-07T15:29:18;12.50;99.90
69418;DHT22;56610;48.872;2.400;2022-12-07T15:31:44;12.40;99.90
69418;DHT22;56610;48.872;2.400;2022-12-07T15:34:10;12.10;99.90
69418;DHT22;56610;48.872;2.400;2022-12-07T15:36:36;11.90;99.90
69418;DHT22;56610;48.872;2.400;2022-12-07T15:39:02;11.80;99.90
69418;DHT22;56610;48.872;2.400;2022-12-07T15:41:28;11.70;99.90
69418;DHT22;56610;48.872;2.400;2022-12-07T15:43:54;11.60;99.90
69418;DHT22;56610;48.872;2.400;2022-12-07T15:46:40;11.40;99.90
69418;DHT22;56610;48.872;2.400;2022-12-07T15:49:10;11.40;99.90
69418;DHT22;56610;48.872;2.400;2022-12-07T15:51:36;11.30;99.90
69418;DHT22;56610;48.872;2.400;2022-12-07T15:54:02;11.50;99.90
69418;DHT22;56610;48.872;2.400;2022-12-07T15:56:28;11.10;99.90
69418;DHT22;56610;48.872;2.400;2022-12-07T15:58:53;10.90;99.90
69418;DHT22;56610;48.872;2.400;2022-12-07T16:01:20;10.80;99.90
69418;DHT22;56610;48.872;2.400;2022-12-07T16:03:46;10.70;99.90
69418;DHT22;56610;48.872;2.400;2022-12-07T16:06:15;10.60;99.90
69418;DHT22;56610;48.872;2.400;2022-12-07T16:08:46;10.50;99.90
69418;DHT22;56610;48.872;2.400;2022-12-07T16:11:12;10.50;99.90
69418;DHT22;56610;48.872;2.400;2022-12-07T16:13:38;10.50;99.90
69418;DHT22;56610;48.872;2.400;2022-12-07T16:16:06;10.70;99.90
69418;DHT22;56610;48.872;2.400;2022-12-07T16:18:34;10.80;99.90
69418;DHT22;56610;48.872;2.400;2022-12-07T16:21:00;10.70;99.90
69418;DHT22;56610;48.872;2.400;2022-12-07T16:23:26;10.80;99.90
69418;DHT22;56610;48.872;2.400;2022-12-07T16:25:51;10.80;99.90
69418;DHT22;56610;48.872;2.400;2022-12-07T16:28:17;10.80;99.90
69418;DHT22;56610;48.872;2.400;2022-12-07T16:30:43;10.80;99.90
69418;DHT22;56610;48.872;2.400;2022-12-07T16:33:08;10.80;99.90
69418;DHT22;56610;48.872;2.400;2022-12-07T16:35:34;10.90;99.90
69418;DHT22;56610;48.872;2.400;2022-12-07T16:37:59;10.90;99.90
69418;DHT22;56610;48.872;2.400;2022-12-07T16:40:25;10.90;99.90
69418;DHT22;56610;48.872;2.400;2022-12-07T16:42:50;10.70;99.90
69418;DHT22;56610;48.872;2.400;2022-12-07T16:45:17;10.80;99.90
69418;DHT22;56610;48.872;2.400;2022-12-07T16:47:42;10.80;99.90
69418;DHT22;56610;48.872;2.400;2022-12-07T16:50:08;10.90;99.90
69418;DHT22;56610;48.872;2.400;2022-12-07T16:52:34;10.90;99.90
69418;DHT22;56610;48.872;2.400;2022-12-07T16:54:59;11.10;99.90
69418;DHT22;56610;48.872;2.400;2022-12-07T16:57:25;11.20;99.90
69418;DHT22;56610;48.872;2.400;2022-12-07T16:59:51;11.30;99.90
69418;DHT22;56610;48.872;2.400;2022-12-07T17:02:18;11.50;99.90
69418;DHT22;56610;48.872;2.400;2022-12-07T17:04:43;11.50;99.90
69418;DHT22;56610;48.872;2.400;2022-12-07T17:07:09;11.60;99.90
69418;DHT22;56610;48.872;2.400;2022-12-07T17:09:35;11.50;99.90
69418;DHT22;56610;48.872;2.400;2022-12-07T17:12:01;11.60;99.90
69418;DHT22;56610;48.872;2.400;2022-12-07T17:14:27;11.70;99.90
69418;DHT22;56610;48.872;2.400;2022-12-07T17:17:11;11.70;99.90
69418;DHT22;56610;48.872;2.400;2022-12-07T17:19:36;11.70;99.90
69418;DHT22;56610;48.872;2.400;2022-12-07T17:22:02;11.40;99.90
69418;DHT22;56610;48.872;2.400;2022-12-07T17:24:27;11.30;99.90
69418;DHT22;56610;48.872;2.400;2022-12-07T17:26:53;11.40;99.90
69418;DHT22;56610;48.872;2.400;2022-12-07T17:29:19;11.70;99.90
69418;DHT22;56610;48.872;2.400;2022-12-07T17:31:46;11.90;99.90
69418;DHT22;56610;48.872;2.400;2022-12-07T17:34:13;12.10;99.90
69418;DHT22;56610;48.872;2.400;2022-12-07T17:36:39;12.10;99.90
69418;DHT22;56610;48.872;2.400;2022-12-07T17:39:09;12.00;99.90
69418;DHT22;56610;48.872;2.400;2022-12-07T17:41:37;11.50;99.90
69418;DHT22;56610;48.872;2.400;2022-12-07T17:44:22;11.30;99.90
69418;DHT22;56610;48.872;2.400;2022-12-07T17:46:50;11.20;99.90
69418;DHT22;56610;48.872;2.400;2022-12-07T17:49:20;11.30;99.90
69418;DHT22;56610;48.872;2.400;2022-12-07T17:51:46;11.50;99.90
69418;DHT22;56610;48.872;2.400;2022-12-07T17:54:30;11.80;99.90
69418;DHT22;56610;48.872;2.400;2022-12-07T17:56:55;12.00;99.90
69418;DHT22;56610;48.872;2.400;2022-12-07T17:59:21;12.30;99.90
69418;DHT22;56610;48.872;2.400;2022-12-07T18:01:47;12.50;99.90
69418;DHT22;56610;48.872;2.400;2022-12-07T18:04:13;12.60;99.90